createdAt,value
2022-10-01T00:00:04.800Z,71.28
2022-10-01T00:02:31.135Z,71.06
2022-10-01T00:04:57.553Z,70.62
2022-10-01T00:07:24.111Z,70.83
2022-10-01T00:09:50.616Z,71.25
2022-10-01T00:12:16.902Z,71.86
2022-10-01T00:14:44.965Z,71.72
2022-10-01T00:17:11.298Z,72.70
2022-10-01T00:19:37.590Z,72.53
2022-10-01T00:22:04.155Z,74.41
2022-10-01T00:24:30.461Z,75.71
2022-10-01T00:26:57.611Z,75.30
2022-10-01T00:29:24.075Z,75.46
2022-10-01T00:31:50.463Z,75.08
2022-10-01T00:34:16.855Z,74.89
2022-10-01T00:36:43.236Z,76.69
2022-10-01T00:39:11.705Z,76.41
2022-10-01T00:41:38.599Z,76.10
2022-10-01T00:44:28.701Z,74.80
2022-10-01T00:46:58.944Z,74.49
2022-10-01T00:49:29.093Z,74.59
2022-10-01T00:52:03.293Z,75.75
2022-10-01T00:54:34.074Z,76.02
2022-10-01T00:57:02.621Z,75.94
2022-10-01T00:59:29.945Z,75.59
2022-10-01T01:01:56.707Z,74.78
2022-10-01T01:04:23.422Z,73.96
2022-10-01T01:06:59.089Z,73.03
2022-10-01T01:09:33.221Z,73.18
2022-10-01T01:12:27.566Z,73.72
2022-10-01T01:15:04.661Z,75.05
2022-10-01T01:17:40.333Z,76.50
2022-10-01T01:20:09.400Z,77.13
2022-10-01T01:22:42.813Z,77.99
2022-10-01T01:25:18.849Z,77.86
2022-10-01T01:28:23.088Z,77.89
2022-10-01T01:30:56.845Z,76.90
2022-10-01T01:33:26.687Z,76.26
2022-10-01T01:35:58.469Z,75.65
2022-10-01T01:38:30.058Z,76.11
2022-10-01T01:41:00.314Z,76.41
2022-10-01T01:43:33.009Z,76.13
2022-10-01T01:46:02.271Z,76.14
2022-10-01T01:48:31.057Z,77.36
2022-10-01T01:51:04.518Z,78.04
2022-10-01T01:53:32.294Z,79.24
2022-10-01T01:56:00.343Z,80.67
2022-10-01T01:58:28.111Z,81.12
2022-10-01T02:00:54.782Z,81.28
2022-10-01T02:03:24.920Z,81.32
2022-10-01T02:06:09.057Z,80.60
2022-10-01T02:08:47.787Z,80.57
2022-10-01T02:11:23.562Z,80.52
2022-10-01T02:14:06.639Z,79.76
2022-10-01T02:16:51.688Z,78.55
2022-10-01T02:19:45.516Z,79.64
2022-10-01T02:22:18.707Z,82.47
2022-10-01T02:25:01.829Z,82.85
2022-10-01T02:27:46.776Z,83.12
2022-10-01T02:30:13.957Z,82.77
2022-10-01T02:32:44.109Z,83.28
2022-10-01T02:35:15.451Z,83.53
2022-10-01T02:37:44.692Z,82.94
2022-10-01T02:40:16.082Z,82.00
2022-10-01T02:42:50.271Z,80.83
2022-10-01T02:45:24.018Z,79.67
2022-10-01T02:47:57.638Z,79.04
2022-10-01T02:50:31.528Z,77.98
2022-10-01T02:53:18.947Z,76.95
2022-10-01T02:55:48.088Z,76.33
2022-10-01T02:58:14.530Z,75.54
2022-10-01T03:00:40.822Z,75.45
2022-10-01T03:03:07.182Z,75.19
2022-10-01T03:05:33.481Z,76.18
2022-10-01T03:07:59.969Z,76.55
2022-10-01T03:10:26.261Z,75.45
2022-10-01T03:12:52.561Z,75.16
2022-10-01T03:15:19.426Z,74.56
2022-10-01T03:17:46.447Z,74.56
2022-10-01T03:20:12.913Z,74.06
2022-10-01T03:22:39.207Z,73.61
2022-10-01T03:25:05.797Z,73.67
2022-10-01T03:27:32.162Z,73.21
2022-10-01T03:29:58.470Z,73.43
2022-10-01T03:32:24.760Z,73.06
2022-10-01T03:34:51.090Z,72.74
2022-10-01T03:37:17.398Z,72.98
2022-10-01T03:39:43.715Z,73.33
2022-10-01T03:42:11.201Z,75.07
2022-10-01T03:44:37.496Z,77.43
2022-10-01T03:47:03.895Z,78.50
2022-10-01T03:49:30.189Z,78.38
2022-10-01T03:51:56.490Z,77.45
2022-10-01T03:54:22.821Z,76.60
2022-10-01T03:56:49.170Z,75.75
2022-10-01T03:59:15.497Z,75.24
2022-10-01T04:01:41.884Z,74.63
2022-10-01T04:04:09.197Z,74.46
2022-10-01T04:06:35.696Z,74.33
2022-10-01T04:09:02.091Z,74.95
2022-10-01T04:11:28.555Z,76.97
2022-10-01T04:13:55.169Z,78.47
2022-10-01T04:16:21.523Z,79.92
2022-10-01T04:18:48.159Z,80.56
2022-10-01T04:21:15.457Z,80.83
2022-10-01T04:23:42.099Z,80.92
2022-10-01T04:26:09.133Z,81.31
2022-10-01T04:28:36.100Z,82.28
2022-10-01T04:31:21.179Z,83.28
2022-10-01T04:33:47.603Z,83.86
2022-10-01T04:36:14.262Z,84.37
2022-10-01T04:38:40.624Z,83.62
2022-10-01T04:41:07.014Z,83.72
2022-10-01T04:43:33.334Z,83.48
2022-10-01T04:45:59.631Z,83.61
2022-10-01T04:48:25.961Z,83.58
2022-10-01T04:50:52.974Z,83.22
2022-10-01T04:53:19.299Z,83.31
2022-10-01T04:55:46.718Z,83.64
2022-10-01T04:58:13.085Z,83.79
2022-10-01T05:00:39.504Z,83.37
2022-10-01T05:03:05.923Z,83.18
2022-10-01T05:05:32.957Z,83.41
2022-10-01T05:07:59.300Z,83.94
2022-10-01T05:10:26.233Z,84.53
2022-10-01T05:12:52.587Z,84.63
2022-10-01T05:15:19.732Z,84.46
2022-10-01T05:17:46.695Z,84.82
2022-10-01T05:20:21.457Z,84.85
2022-10-01T05:22:49.329Z,85.01
2022-10-01T05:25:16.510Z,85.44
2022-10-01T05:27:42.888Z,85.98
2022-10-01T05:30:11.548Z,86.16
2022-10-01T05:32:37.985Z,85.59
2022-10-01T05:35:07.020Z,85.93
2022-10-01T05:37:34.293Z,85.67
2022-10-01T05:40:01.576Z,85.64
2022-10-01T05:42:27.923Z,85.36
2022-10-01T05:44:54.464Z,85.21
2022-10-01T05:47:21.074Z,84.92
2022-10-01T05:49:47.425Z,85.00
2022-10-01T05:52:15.493Z,84.71
2022-10-01T05:54:41.791Z,84.89
2022-10-01T05:57:08.654Z,84.59
2022-10-01T05:59:35.457Z,84.54
2022-10-01T06:02:03.790Z,84.09
2022-10-01T06:04:30.321Z,83.87
2022-10-01T06:06:56.678Z,84.01
2022-10-01T06:09:23.027Z,83.29
2022-10-01T06:11:49.796Z,82.80
2022-10-01T06:14:16.547Z,81.87
2022-10-01T06:16:43.011Z,81.96
2022-10-01T06:19:09.581Z,82.11
2022-10-01T06:21:36.297Z,81.71
2022-10-01T06:24:02.955Z,81.49
2022-10-01T06:26:29.458Z,81.51
2022-10-01T06:28:56.532Z,81.46
2022-10-01T06:31:23.197Z,81.52
2022-10-01T06:33:49.622Z,81.74
2022-10-01T06:36:15.976Z,81.25
2022-10-01T06:38:43.127Z,81.43
2022-10-01T06:41:09.786Z,80.81
2022-10-01T06:43:36.387Z,80.81
2022-10-01T06:46:04.689Z,80.63
2022-10-01T06:48:32.418Z,79.92
2022-10-01T06:50:59.377Z,80.01
2022-10-01T06:53:27.589Z,79.95
2022-10-01T06:55:54.491Z,79.56
2022-10-01T06:58:22.713Z,79.54
2022-10-01T07:00:50.227Z,79.81
2022-10-01T07:03:21.657Z,79.42
2022-10-01T07:05:50.079Z,79.46
2022-10-01T07:08:16.562Z,79.21
2022-10-01T07:10:44.138Z,78.86
2022-10-01T07:13:16.600Z,78.91
2022-10-01T07:15:43.673Z,79.01
2022-10-01T07:18:10.173Z,79.37
2022-10-01T07:20:39.759Z,79.93
2022-10-01T07:23:08.562Z,80.47
2022-10-01T07:25:34.871Z,80.61
2022-10-01T07:28:04.451Z,80.29
2022-10-01T07:30:31.908Z,80.30
2022-10-01T07:32:58.621Z,80.29
2022-10-01T07:35:26.398Z,80.91
2022-10-01T07:37:55.100Z,80.64
2022-10-01T07:40:21.832Z,80.47
2022-10-01T07:42:56.153Z,79.62
2022-10-01T07:45:23.383Z,79.84
2022-10-01T07:47:58.459Z,80.08
2022-10-01T07:50:30.412Z,79.93
2022-10-01T07:52:58.525Z,79.13
2022-10-01T07:55:26.948Z,78.72
2022-10-01T07:57:55.297Z,78.40
2022-10-01T08:00:23.401Z,78.15
2022-10-01T08:02:51.215Z,77.87
2022-10-01T08:05:19.027Z,78.00
2022-10-01T08:07:46.868Z,77.02
2022-10-01T08:10:13.931Z,76.55
2022-10-01T08:12:42.610Z,76.87
2022-10-01T08:15:11.223Z,76.62
2022-10-01T08:17:38.785Z,76.49
2022-10-01T08:20:07.495Z,75.84
2022-10-01T08:22:35.759Z,75.34
2022-10-01T08:25:05.934Z,75.79
2022-10-01T08:27:32.535Z,76.48
2022-10-01T08:29:58.867Z,76.90
2022-10-01T08:32:26.084Z,75.56
2022-10-01T08:34:56.712Z,76.29
2022-10-01T08:37:28.153Z,76.71
2022-10-01T08:39:56.111Z,77.45
2022-10-01T08:42:41.294Z,76.83
2022-10-01T08:45:20.163Z,77.90
2022-10-01T08:48:22.797Z,77.72
2022-10-01T08:50:54.326Z,77.76
2022-10-01T08:53:32.660Z,77.46
2022-10-01T08:56:01.284Z,75.99
2022-10-01T08:58:46.391Z,76.35
2022-10-01T09:01:12.751Z,75.83
2022-10-01T09:03:39.911Z,75.84
2022-10-01T09:06:22.243Z,75.52
2022-10-01T09:08:55.880Z,75.19
2022-10-01T09:11:42.153Z,75.41
2022-10-01T09:14:11.525Z,74.87
2022-10-01T09:16:52.530Z,75.11
2022-10-01T09:19:50.427Z,75.84
2022-10-01T09:22:29.576Z,76.25
2022-10-01T09:25:27.290Z,75.42
2022-10-01T09:28:15.426Z,75.43
2022-10-01T09:30:49.847Z,75.61
2022-10-01T09:33:20.245Z,75.56
2022-10-01T09:35:48.880Z,75.98
2022-10-01T09:38:15.124Z,76.37
2022-10-01T09:40:53.301Z,75.00
2022-10-01T09:43:21.800Z,74.60
2022-10-01T09:45:48.139Z,73.99
2022-10-01T09:48:54.459Z,74.00
2022-10-01T09:51:33.987Z,74.15
2022-10-01T09:54:20.633Z,73.49
2022-10-01T09:57:09.623Z,72.80
2022-10-01T10:00:06.409Z,72.33
2022-10-01T10:02:49.322Z,72.12
2022-10-01T10:05:21.689Z,71.42
2022-10-01T10:08:17.117Z,70.74
2022-10-01T10:10:58.307Z,69.36
2022-10-01T10:13:39.076Z,70.59
2022-10-01T10:16:17.243Z,69.15
2022-10-01T10:18:52.455Z,69.56
2022-10-01T10:21:27.605Z,69.00
2022-10-01T10:24:02.736Z,68.29
2022-10-01T10:26:40.989Z,68.57
2022-10-01T10:29:26.613Z,68.11
2022-10-01T10:31:55.578Z,68.20
2022-10-01T10:34:39.240Z,67.20
2022-10-01T10:37:17.967Z,67.23
2022-10-01T10:39:56.444Z,66.89
2022-10-01T10:42:25.786Z,66.29
2022-10-01T10:44:55.928Z,67.18
2022-10-01T10:47:24.223Z,68.16
2022-10-01T10:49:52.739Z,69.25
2022-10-01T10:52:33.130Z,69.88
2022-10-01T10:55:25.933Z,70.96
2022-10-01T10:57:57.304Z,71.41
2022-10-01T11:00:31.616Z,71.51
2022-10-01T11:03:01.422Z,71.72
2022-10-01T11:05:31.908Z,69.77
2022-10-01T11:08:01.095Z,69.85
2022-10-01T11:11:02.810Z,70.02
2022-10-01T11:14:00.247Z,69.82
2022-10-01T11:17:05.782Z,68.89
2022-10-01T11:19:55.637Z,69.04
2022-10-01T11:22:36.461Z,68.99
2022-10-01T11:25:17.551Z,69.47
2022-10-01T11:28:10.445Z,68.17
2022-10-01T11:30:54.029Z,68.66
2022-10-01T11:33:30.582Z,68.90
2022-10-01T11:36:22.617Z,68.98
2022-10-01T11:39:05.474Z,67.73
2022-10-01T11:41:43.523Z,68.24
2022-10-01T11:44:21.985Z,68.50
2022-10-01T11:47:00.261Z,69.31
2022-10-01T11:49:41.902Z,68.31
2022-10-01T11:52:18.656Z,69.19
2022-10-01T11:54:58.734Z,69.78
2022-10-01T11:57:45.919Z,70.98
2022-10-01T12:00:14.269Z,73.07
2022-10-01T12:02:50.105Z,74.00
2022-10-01T12:05:28.190Z,75.60
2022-10-01T12:08:11.375Z,76.49
2022-10-01T12:11:00.265Z,76.20
2022-10-01T12:13:42.300Z,76.09
2022-10-01T12:16:18.701Z,75.96
2022-10-01T12:18:52.121Z,76.34
2022-10-01T12:21:33.267Z,76.75
2022-10-01T12:24:05.504Z,78.28
2022-10-01T12:27:00.408Z,79.06
2022-10-01T12:29:39.737Z,80.18
2022-10-01T12:32:17.178Z,80.66
2022-10-01T12:35:21.255Z,81.18
2022-10-01T12:38:06.262Z,81.09
2022-10-01T12:40:51.413Z,81.71
2022-10-01T12:43:27.726Z,82.25
2022-10-01T12:46:05.212Z,81.59
2022-10-01T12:48:42.728Z,82.38
2022-10-01T12:51:30.545Z,82.24
2022-10-01T12:54:07.824Z,81.64
2022-10-01T12:56:58.289Z,81.81
2022-10-01T12:59:24.860Z,82.23
2022-10-01T13:02:07.985Z,81.47
2022-10-01T13:04:56.563Z,81.69
2022-10-01T13:07:29.695Z,81.77
2022-10-01T13:10:05.258Z,82.61
2022-10-01T13:12:56.432Z,83.45
2022-10-01T13:15:34.861Z,83.15
2022-10-01T13:18:13.509Z,83.24
2022-10-01T13:20:54.070Z,82.97
2022-10-01T13:23:41.016Z,83.36
2022-10-01T13:26:17.910Z,82.59
2022-10-01T13:29:08.560Z,82.75
2022-10-01T13:31:39.587Z,82.28
2022-10-01T13:34:26.096Z,82.61
2022-10-01T13:36:52.440Z,82.87
2022-10-01T13:39:24.009Z,84.45
2022-10-01T13:41:57.162Z,84.48
2022-10-01T13:44:32.000Z,85.35
2022-10-01T13:47:06.064Z,86.12
2022-10-01T13:49:34.777Z,85.91
2022-10-01T13:52:06.060Z,85.84
2022-10-01T13:54:47.358Z,85.19
2022-10-01T13:57:29.156Z,85.63
2022-10-01T14:00:01.779Z,85.58
2022-10-01T14:02:34.683Z,85.62
2022-10-01T14:05:13.284Z,86.10
2022-10-01T14:07:39.910Z,86.43
2022-10-01T14:10:10.922Z,86.39
2022-10-01T14:12:59.868Z,86.87
2022-10-01T14:16:02.620Z,87.16
2022-10-01T14:18:42.791Z,86.92
2022-10-01T14:21:48.029Z,86.17
2022-10-01T14:24:46.122Z,86.25
2022-10-01T14:27:47.769Z,86.44
2022-10-01T14:30:22.754Z,86.77
2022-10-01T14:33:29.874Z,86.80
2022-10-01T14:36:15.423Z,86.68
2022-10-01T14:38:42.189Z,86.58
2022-10-01T14:41:20.236Z,86.47
2022-10-01T14:43:46.798Z,86.15
2022-10-01T14:46:17.789Z,85.98
2022-10-01T14:48:44.672Z,86.22
2022-10-01T14:51:24.694Z,85.95
2022-10-01T14:53:52.311Z,86.09
2022-10-01T14:56:20.099Z,86.15
2022-10-01T14:58:52.531Z,86.41
2022-10-01T15:01:23.652Z,86.57
2022-10-01T15:03:51.714Z,85.95
2022-10-01T15:06:27.939Z,85.79
2022-10-01T15:08:57.278Z,86.23
2022-10-01T15:11:33.815Z,86.46
2022-10-01T15:14:06.411Z,85.87
2022-10-01T15:16:35.048Z,85.29
2022-10-01T15:19:07.025Z,85.60
2022-10-01T15:21:40.878Z,85.89
2022-10-01T15:24:16.355Z,86.57
2022-10-01T15:26:46.132Z,86.69
2022-10-01T15:29:14.590Z,86.88
2022-10-01T15:31:41.518Z,86.22
2022-10-01T15:34:12.888Z,86.38
2022-10-01T15:36:40.914Z,85.84
2022-10-01T15:39:34.958Z,86.06
2022-10-01T15:42:18.439Z,86.08
2022-10-01T15:44:46.796Z,86.50
2022-10-01T15:47:33.164Z,86.39
2022-10-01T15:50:17.101Z,86.39
2022-10-01T15:52:53.415Z,86.59
2022-10-01T15:55:25.858Z,87.14
2022-10-01T15:58:04.452Z,86.99
2022-10-01T16:00:37.767Z,87.25
2022-10-01T16:03:04.213Z,86.94
2022-10-01T16:05:45.916Z,86.75
2022-10-01T16:08:21.519Z,87.18
2022-10-01T16:11:09.323Z,87.45
2022-10-01T16:13:44.717Z,88.23
2022-10-01T16:16:11.154Z,87.71
2022-10-01T16:18:37.485Z,87.89
2022-10-01T16:21:05.989Z,87.11
2022-10-01T16:23:43.811Z,86.83
2022-10-01T16:26:40.155Z,87.20
2022-10-01T16:29:23.884Z,86.98
2022-10-01T16:31:50.547Z,86.79
2022-10-01T16:34:19.735Z,86.59
2022-10-01T16:36:46.464Z,86.60
2022-10-01T16:39:14.975Z,86.60
2022-10-01T16:41:44.613Z,87.53
2022-10-01T16:44:13.770Z,87.30
2022-10-01T16:46:41.213Z,88.04
2022-10-01T16:49:13.967Z,87.65
2022-10-01T16:51:40.996Z,88.15
2022-10-01T16:54:19.309Z,88.08
2022-10-01T16:56:45.614Z,88.51
2022-10-01T16:59:12.570Z,89.04
2022-10-01T17:01:39.028Z,89.30
2022-10-01T17:04:05.337Z,88.66
2022-10-01T17:06:31.856Z,88.41
2022-10-01T17:08:58.482Z,88.14
2022-10-01T17:11:26.849Z,88.13
2022-10-01T17:13:53.133Z,88.35
2022-10-01T17:16:24.419Z,88.29
2022-10-01T17:18:50.977Z,89.09
2022-10-01T17:21:17.311Z,89.10
2022-10-01T17:23:43.634Z,89.52
2022-10-01T17:26:10.218Z,89.27
2022-10-01T17:28:36.605Z,88.96
2022-10-01T17:31:06.917Z,89.17
2022-10-01T17:33:33.666Z,89.12
2022-10-01T17:36:00.199Z,89.22
2022-10-01T17:38:26.568Z,89.56
2022-10-01T17:40:56.706Z,89.25
2022-10-01T17:43:23.501Z,89.04
2022-10-01T17:45:55.996Z,88.91
2022-10-01T17:48:30.870Z,89.10
2022-10-01T17:51:07.480Z,89.31
2022-10-01T17:53:41.829Z,89.19
2022-10-01T17:56:14.432Z,89.26
2022-10-01T17:58:46.504Z,89.52
2022-10-01T18:01:22.248Z,89.58
2022-10-01T18:03:55.399Z,89.80
2022-10-01T18:06:27.533Z,89.55
2022-10-01T18:08:56.229Z,89.20
2022-10-01T18:11:29.449Z,89.39
2022-10-01T18:13:57.326Z,89.84
2022-10-01T18:16:24.216Z,90.06
2022-10-01T18:21:45.459Z,90.52
2022-10-01T18:24:11.919Z,90.65
2022-10-01T18:26:39.804Z,90.78
2022-10-01T18:29:06.214Z,91.27
2022-10-01T18:31:40.732Z,91.67
2022-10-01T18:34:18.219Z,91.54
2022-10-01T18:36:53.972Z,91.22
2022-10-01T18:39:44.389Z,91.02
2022-10-01T18:42:19.107Z,90.76
2022-10-01T18:44:50.582Z,90.51
2022-10-01T18:47:33.688Z,90.16
2022-10-01T18:50:25.336Z,89.81
2022-10-01T18:53:06.929Z,90.53
2022-10-01T18:55:55.219Z,91.12
2022-10-01T18:58:59.404Z,91.59
2022-10-01T19:01:53.962Z,91.15
2022-10-01T19:04:57.650Z,91.08
2022-10-01T19:07:56.388Z,91.09
2022-10-01T19:10:59.298Z,91.25
2022-10-01T19:13:34.989Z,90.54
2022-10-01T19:16:46.579Z,90.94
2022-10-01T19:19:31.672Z,91.31
2022-10-01T19:22:11.675Z,91.24
2022-10-01T19:25:05.386Z,90.71
2022-10-01T19:27:46.972Z,90.89
2022-10-01T19:30:16.372Z,90.29
2022-10-01T19:33:11.669Z,89.83
2022-10-01T19:35:42.265Z,89.67
2022-10-01T19:38:29.647Z,89.91
2022-10-01T19:41:02.727Z,89.99
2022-10-01T19:43:28.982Z,90.38
2022-10-01T19:46:05.861Z,90.58
2022-10-01T19:48:56.935Z,90.07
2022-10-01T19:51:29.200Z,90.16
2022-10-01T19:54:00.836Z,89.24
2022-10-01T19:56:29.917Z,88.38
2022-10-01T19:59:04.204Z,88.03
2022-10-01T20:01:38.837Z,87.73
2022-10-01T20:04:14.519Z,87.37
2022-10-01T20:06:46.334Z,86.75
2022-10-01T20:09:41.417Z,87.49
2022-10-01T20:12:19.996Z,88.03
2022-10-01T20:15:08.200Z,87.96
2022-10-01T20:17:49.987Z,88.35
2022-10-01T20:20:48.592Z,88.76
2022-10-01T20:23:27.263Z,89.69
2022-10-01T20:26:14.395Z,89.68
2022-10-01T20:29:25.444Z,89.28
2022-10-01T20:31:52.364Z,89.38
2022-10-01T20:34:29.767Z,89.41
2022-10-01T20:37:34.760Z,89.30
2022-10-01T20:40:25.027Z,89.40
2022-10-01T20:43:00.585Z,88.73
2022-10-01T20:45:29.893Z,88.66
2022-10-01T20:48:04.023Z,88.79
2022-10-01T20:50:37.283Z,88.61
2022-10-01T20:53:14.383Z,89.03
2022-10-01T20:55:50.608Z,87.92
2022-10-01T20:58:25.057Z,87.14
2022-10-01T21:00:59.409Z,86.96
2022-10-01T21:03:40.658Z,86.56
2022-10-01T21:06:14.956Z,86.50
2022-10-01T21:08:53.435Z,86.84
2022-10-01T21:11:28.989Z,87.40
2022-10-01T21:14:04.041Z,87.47
2022-10-01T21:16:44.568Z,88.15
2022-10-01T21:19:43.669Z,87.84
2022-10-01T21:22:59.041Z,87.92
2022-10-01T21:25:43.014Z,87.79
2022-10-01T21:28:43.234Z,87.92
2022-10-01T21:31:12.532Z,88.06
2022-10-01T21:33:45.747Z,87.97
2022-10-01T21:36:43.994Z,88.33
2022-10-01T21:39:33.274Z,88.28
2022-10-01T21:42:02.600Z,88.37
2022-10-01T21:44:40.146Z,88.36
2022-10-01T21:47:15.754Z,88.62
2022-10-01T21:50:19.119Z,88.20
2022-10-01T21:52:54.142Z,88.44
2022-10-01T21:55:40.216Z,88.59
2022-10-01T21:58:23.675Z,88.43
2022-10-01T22:01:16.121Z,88.90
2022-10-01T22:03:53.069Z,88.67
2022-10-01T22:06:25.881Z,88.83
2022-10-01T22:09:27.795Z,88.02
2022-10-01T22:12:00.285Z,88.58
2022-10-01T22:14:27.896Z,88.48
2022-10-01T22:17:01.240Z,88.67
2022-10-01T22:19:29.992Z,89.10
2022-10-01T22:22:04.567Z,90.04
2022-10-01T22:24:41.106Z,89.08
2022-10-01T22:27:13.354Z,89.78
2022-10-01T22:29:48.906Z,89.32
2022-10-01T22:32:20.388Z,89.08
2022-10-01T22:34:55.627Z,88.02
2022-10-01T22:37:28.375Z,88.20
2022-10-01T22:40:02.980Z,88.53
2022-10-01T22:42:35.342Z,89.10
2022-10-01T22:45:12.111Z,89.13
2022-10-01T22:48:06.652Z,88.77
2022-10-01T22:50:48.211Z,88.63
2022-10-01T22:53:29.641Z,87.52
2022-10-01T22:55:57.369Z,86.26
2022-10-01T22:58:51.973Z,85.32
2022-10-01T23:01:27.641Z,84.55
2022-10-01T23:04:09.307Z,84.71
2022-10-01T23:07:00.527Z,85.28
2022-10-01T23:09:30.539Z,85.25
2022-10-01T23:12:00.519Z,86.17
2022-10-01T23:14:45.437Z,86.88
2022-10-01T23:17:26.106Z,87.42
2022-10-01T23:20:03.377Z,87.16
2022-10-01T23:22:48.254Z,86.47
2022-10-01T23:25:45.999Z,85.81
2022-10-01T23:28:54.544Z,86.13
2022-10-01T23:31:44.480Z,86.02
2022-10-01T23:34:32.450Z,86.71
2022-10-01T23:37:21.467Z,86.35
2022-10-01T23:40:03.962Z,86.20
2022-10-01T23:42:36.899Z,86.28
2022-10-01T23:45:19.615Z,86.59
2022-10-01T23:47:59.073Z,85.19
2022-10-01T23:51:00.993Z,84.95
2022-10-01T23:53:45.961Z,85.10
2022-10-01T23:56:38.093Z,83.86
2022-10-01T23:59:15.682Z,83.18
